sensor_id;sensor_type;location;lat;lon;timestamp;P1;durP1;ratioP1;P2;durP2;ratioP2
12288;SDS011;6207;49.308;7.336;2022-08-01T00:00:00;8.40;;;8.00;;
12288;SDS011;6207;49.308;7.336;2022-08-01T00:02:28;8.45;;;8.05;;
12288;SDS011;6207;49.308;7.336;2022-08-01T00:04:55;8.70;;;8.20;;
12288;SDS011;6207;49.308;7.336;2022-08-01T00:07:21;8.52;;;7.93;;
12288;SDS011;6207;49.308;7.336;2022-08-01T00:09:48;8.40;;;7.90;;
12288;SDS011;6207;49.308;7.336;2022-08-01T00:12:15;8.57;;;7.97;;
12288;SDS011;6207;49.308;7.336;2022-08-01T00:14:42;8.05;;;7.65;;
12288;SDS011;6207;49.308;7.336;2022-08-01T00:17:09;8.30;;;7.80;;
12288;SDS011;6207;49.308;7.336;2022-08-01T00:19:35;8.80;;;8.30;;
12288;SDS011;6207;49.308;7.336;2022-08-01T00:22:02;8.50;;;8.00;;
12288;SDS011;6207;49.308;7.336;2022-08-01T00:24:29;8.30;;;7.90;;
12288;SDS011;6207;49.308;7.336;2022-08-01T00:26:56;8.13;;;7.72;;
12288;SDS011;6207;49.308;7.336;2022-08-01T00:29:23;8.13;;;7.63;;
12288;SDS011;6207;49.308;7.336;2022-08-01T00:32:10;8.20;;;7.80;;
12288;SDS011;6207;49.308;7.336;2022-08-01T00:34:36;8.15;;;7.75;;
12288;SDS011;6207;49.308;7.336;2022-08-01T00:37:03;8.63;;;8.02;;
12288;SDS011;6207;49.308;7.336;2022-08-01T00:39:30;8.30;;;7.80;;
12288;SDS011;6207;49.308;7.336;2022-08-01T00:42:20;8.38;;;7.88;;
12288;SDS011;6207;49.308;7.336;2022-08-01T00:44:46;7.93;;;7.53;;
12288;SDS011;6207;49.308;7.336;2022-08-01T00:47:13;8.27;;;7.80;;
12288;SDS011;6207;49.308;7.336;2022-08-01T00:49:40;8.15;;;7.75;;
12288;SDS011;6207;49.308;7.336;2022-08-01T00:52:07;7.95;;;7.55;;
12288;SDS011;6207;49.308;7.336;2022-08-01T00:54:35;8.02;;;7.63;;
12288;SDS011;6207;49.308;7.336;2022-08-01T00:57:02;8.27;;;7.80;;
12288;SDS011;6207;49.308;7.336;2022-08-01T00:59:34;7.85;;;7.45;;
12288;SDS011;6207;49.308;7.336;2022-08-01T01:02:02;7.72;;;7.28;;
12288;SDS011;6207;49.308;7.336;2022-08-01T01:04:39;7.90;;;7.35;;
12288;SDS011;6207;49.308;7.336;2022-08-01T01:07:08;7.68;;;7.25;;
12288;SDS011;6207;49.308;7.336;2022-08-01T01:12:31;7.78;;;7.38;;
12288;SDS011;6207;49.308;7.336;2022-08-01T01:15:08;7.70;;;7.30;;
12288;SDS011;6207;49.308;7.336;2022-08-01T01:17:54;7.45;;;7.05;;
12288;SDS011;6207;49.308;7.336;2022-08-01T01:20:37;7.72;;;7.22;;
12288;SDS011;6207;49.308;7.336;2022-08-01T01:26:17;7.35;;;6.88;;
12288;SDS011;6207;49.308;7.336;2022-08-01T01:31:51;7.13;;;6.82;;
12288;SDS011;6207;49.308;7.336;2022-08-01T01:34:25;7.70;;;7.20;;
12288;SDS011;6207;49.308;7.336;2022-08-01T01:36:55;7.47;;;7.07;;
12288;SDS011;6207;49.308;7.336;2022-08-01T01:39:24;7.80;;;7.30;;
12288;SDS011;6207;49.308;7.336;2022-08-01T01:41:54;7.38;;;6.85;;
12288;SDS011;6207;49.308;7.336;2022-08-01T01:44:22;7.30;;;6.90;;
12288;SDS011;6207;49.308;7.336;2022-08-01T01:46:51;7.40;;;6.90;;
12288;SDS011;6207;49.308;7.336;2022-08-01T01:49:20;7.55;;;7.15;;
12288;SDS011;6207;49.308;7.336;2022-08-01T01:51:50;7.38;;;6.97;;
12288;SDS011;6207;49.308;7.336;2022-08-01T01:54:36;7.30;;;6.90;;
12288;SDS011;6207;49.308;7.336;2022-08-01T01:57:06;7.57;;;7.18;;
12288;SDS011;6207;49.308;7.336;2022-08-01T01:59:36;7.43;;;7.03;;
12288;SDS011;6207;49.308;7.336;2022-08-01T02:02:05;7.95;;;7.35;;
12288;SDS011;6207;49.308;7.336;2022-08-01T02:04:37;7.28;;;6.88;;
12288;SDS011;6207;49.308;7.336;2022-08-01T02:07:10;7.45;;;7.05;;
12288;SDS011;6207;49.308;7.336;2022-08-01T02:09:41;8.20;;;7.57;;
12288;SDS011;6207;49.308;7.336;2022-08-01T02:12:12;7.57;;;7.07;;
12288;SDS011;6207;49.308;7.336;2022-08-01T02:14:41;7.25;;;6.80;;
12288;SDS011;6207;49.308;7.336;2022-08-01T02:17:11;7.18;;;6.78;;
12288;SDS011;6207;49.308;7.336;2022-08-01T02:19:41;7.25;;;6.68;;
12288;SDS011;6207;49.308;7.336;2022-08-01T02:22:24;7.53;;;7.10;;
12288;SDS011;6207;49.308;7.336;2022-08-01T02:24:58;7.53;;;6.80;;
12288;SDS011;6207;49.308;7.336;2022-08-01T02:27:30;7.05;;;6.65;;
12288;SDS011;6207;49.308;7.336;2022-08-01T02:30:04;7.70;;;7.20;;
12288;SDS011;6207;49.308;7.336;2022-08-01T02:32:36;7.00;;;6.60;;
12288;SDS011;6207;49.308;7.336;2022-08-01T02:35:03;6.60;;;6.20;;
12288;SDS011;6207;49.308;7.336;2022-08-01T02:37:34;6.88;;;6.40;;
12288;SDS011;6207;49.308;7.336;2022-08-01T02:40:10;7.22;;;6.70;;
12288;SDS011;6207;49.308;7.336;2022-08-01T02:42:40;7.40;;;7.00;;
12288;SDS011;6207;49.308;7.336;2022-08-01T02:45:11;7.00;;;6.60;;
12288;SDS011;6207;49.308;7.336;2022-08-01T02:47:40;7.25;;;6.75;;
12288;SDS011;6207;49.308;7.336;2022-08-01T02:50:09;7.30;;;6.70;;
12288;SDS011;6207;49.308;7.336;2022-08-01T02:52:38;6.90;;;6.40;;
12288;SDS011;6207;49.308;7.336;2022-08-01T02:55:08;6.88;;;6.38;;
12288;SDS011;6207;49.308;7.336;2022-08-01T02:57:36;6.90;;;6.50;;
12288;SDS011;6207;49.308;7.336;2022-08-01T03:00:22;6.65;;;6.25;;
12288;SDS011;6207;49.308;7.336;2022-08-01T03:02:50;6.85;;;6.35;;
12288;SDS011;6207;49.308;7.336;2022-08-01T03:05:20;6.90;;;6.40;;
12288;SDS011;6207;49.308;7.336;2022-08-01T03:07:48;6.90;;;6.50;;
12288;SDS011;6207;49.308;7.336;2022-08-01T03:10:16;6.65;;;6.35;;
12288;SDS011;6207;49.308;7.336;2022-08-01T03:12:43;6.78;;;6.28;;
12288;SDS011;6207;49.308;7.336;2022-08-01T03:15:13;6.90;;;6.30;;
12288;SDS011;6207;49.308;7.336;2022-08-01T03:17:41;6.90;;;6.50;;
12288;SDS011;6207;49.308;7.336;2022-08-01T03:20:13;7.28;;;6.65;;
12288;SDS011;6207;49.308;7.336;2022-08-01T03:22:42;6.90;;;6.40;;
12288;SDS011;6207;49.308;7.336;2022-08-01T03:25:11;6.38;;;5.97;;
12288;SDS011;6207;49.308;7.336;2022-08-01T03:27:39;6.60;;;6.20;;
12288;SDS011;6207;49.308;7.336;2022-08-01T03:30:09;7.28;;;6.88;;
12288;SDS011;6207;49.308;7.336;2022-08-01T03:32:36;7.20;;;6.70;;
12288;SDS011;6207;49.308;7.336;2022-08-01T03:35:03;6.82;;;6.43;;
12288;SDS011;6207;49.308;7.336;2022-08-01T03:37:34;7.18;;;6.50;;
12288;SDS011;6207;49.308;7.336;2022-08-01T03:40:25;6.70;;;6.30;;
12288;SDS011;6207;49.308;7.336;2022-08-01T03:43:07;6.38;;;5.90;;
12288;SDS011;6207;49.308;7.336;2022-08-01T03:45:55;6.30;;;5.90;;
12288;SDS011;6207;49.308;7.336;2022-08-01T03:48:27;6.60;;;6.10;;
12288;SDS011;6207;49.308;7.336;2022-08-01T03:50:58;6.28;;;5.88;;
12288;SDS011;6207;49.308;7.336;2022-08-01T03:53:26;6.40;;;6.00;;
12288;SDS011;6207;49.308;7.336;2022-08-01T03:55:58;6.22;;;5.82;;
12288;SDS011;6207;49.308;7.336;2022-08-01T03:58:30;5.82;;;5.53;;
12288;SDS011;6207;49.308;7.336;2022-08-01T04:00:57;6.13;;;5.80;;
12288;SDS011;6207;49.308;7.336;2022-08-01T04:03:24;6.40;;;6.00;;
12288;SDS011;6207;49.308;7.336;2022-08-01T04:05:52;6.70;;;6.30;;
12288;SDS011;6207;49.308;7.336;2022-08-01T04:08:19;7.25;;;6.30;;
12288;SDS011;6207;49.308;7.336;2022-08-01T04:10:46;6.85;;;6.22;;
12288;SDS011;6207;49.308;7.336;2022-08-01T04:13:15;6.90;;;6.50;;
12288;SDS011;6207;49.308;7.336;2022-08-01T04:15:42;7.20;;;6.80;;
12288;SDS011;6207;49.308;7.336;2022-08-01T04:18:09;6.72;;;6.32;;
12288;SDS011;6207;49.308;7.336;2022-08-01T04:20:36;6.85;;;6.35;;
12288;SDS011;6207;49.308;7.336;2022-08-01T04:23:03;6.80;;;6.32;;
12288;SDS011;6207;49.308;7.336;2022-08-01T04:25:32;7.28;;;6.68;;
12288;SDS011;6207;49.308;7.336;2022-08-01T04:28:00;7.10;;;6.68;;
12288;SDS011;6207;49.308;7.336;2022-08-01T04:30:31;7.00;;;6.50;;
12288;SDS011;6207;49.308;7.336;2022-08-01T04:33:00;7.05;;;6.65;;
12288;SDS011;6207;49.308;7.336;2022-08-01T04:35:29;7.22;;;6.60;;
12288;SDS011;6207;49.308;7.336;2022-08-01T04:38:21;7.35;;;6.75;;
12288;SDS011;6207;49.308;7.336;2022-08-01T04:40:53;7.00;;;6.60;;
12288;SDS011;6207;49.308;7.336;2022-08-01T04:43:20;7.63;;;7.13;;
12288;SDS011;6207;49.308;7.336;2022-08-01T04:45:49;7.45;;;7.05;;
12288;SDS011;6207;49.308;7.336;2022-08-01T04:48:17;7.85;;;7.43;;
12288;SDS011;6207;49.308;7.336;2022-08-01T04:50:48;7.97;;;7.47;;
12288;SDS011;6207;49.308;7.336;2022-08-01T04:53:15;7.80;;;7.40;;
12288;SDS011;6207;49.308;7.336;2022-08-01T04:55:44;7.90;;;7.35;;
12288;SDS011;6207;49.308;7.336;2022-08-01T04:58:12;8.27;;;7.47;;
12288;SDS011;6207;49.308;7.336;2022-08-01T05:00:43;8.18;;;7.50;;
12288;SDS011;6207;49.308;7.336;2022-08-01T05:03:11;8.40;;;7.80;;
12288;SDS011;6207;49.308;7.336;2022-08-01T05:05:37;8.50;;;7.88;;
12288;SDS011;6207;49.308;7.336;2022-08-01T05:08:04;7.80;;;7.40;;
12288;SDS011;6207;49.308;7.336;2022-08-01T05:10:32;8.00;;;7.50;;
12288;SDS011;6207;49.308;7.336;2022-08-01T05:13:00;7.90;;;7.40;;
12288;SDS011;6207;49.308;7.336;2022-08-01T05:15:27;7.68;;;7.18;;
12288;SDS011;6207;49.308;7.336;2022-08-01T05:17:54;7.95;;;7.55;;
12288;SDS011;6207;49.308;7.336;2022-08-01T05:20:20;7.97;;;7.57;;
12288;SDS011;6207;49.308;7.336;2022-08-01T05:22:47;8.25;;;7.75;;
12288;SDS011;6207;49.308;7.336;2022-08-01T05:25:14;8.10;;;7.68;;
12288;SDS011;6207;49.308;7.336;2022-08-01T05:27:45;8.40;;;7.90;;
12288;SDS011;6207;49.308;7.336;2022-08-01T05:30:16;8.52;;;7.82;;
12288;SDS011;6207;49.308;7.336;2022-08-01T05:32:43;8.25;;;7.85;;
12288;SDS011;6207;49.308;7.336;2022-08-01T05:35:09;8.20;;;7.80;;
12288;SDS011;6207;49.308;7.336;2022-08-01T05:37:36;8.02;;;7.63;;
12288;SDS011;6207;49.308;7.336;2022-08-01T05:40:03;8.15;;;7.65;;
12288;SDS011;6207;49.308;7.336;2022-08-01T05:42:31;8.05;;;7.60;;
12288;SDS011;6207;49.308;7.336;2022-08-01T05:44:58;8.23;;;7.72;;
12288;SDS011;6207;49.308;7.336;2022-08-01T05:47:25;8.35;;;7.88;;
12288;SDS011;6207;49.308;7.336;2022-08-01T05:49:51;8.52;;;7.82;;
12288;SDS011;6207;49.308;7.336;2022-08-01T05:52:18;8.20;;;7.72;;
12288;SDS011;6207;49.308;7.336;2022-08-01T05:54:45;8.18;;;7.68;;
12288;SDS011;6207;49.308;7.336;2022-08-01T05:57:12;8.25;;;7.75;;
12288;SDS011;6207;49.308;7.336;2022-08-01T05:59:40;8.43;;;7.70;;
12288;SDS011;6207;49.308;7.336;2022-08-01T06:02:07;8.02;;;7.53;;
12288;SDS011;6207;49.308;7.336;2022-08-01T06:04:34;8.02;;;7.63;;
12288;SDS011;6207;49.308;7.336;2022-08-01T06:07:01;8.43;;;7.90;;
12288;SDS011;6207;49.308;7.336;2022-08-01T06:09:28;7.90;;;7.50;;
12288;SDS011;6207;49.308;7.336;2022-08-01T06:11:56;8.30;;;7.90;;
12288;SDS011;6207;49.308;7.336;2022-08-01T06:14:23;8.52;;;8.00;;
12288;SDS011;6207;49.308;7.336;2022-08-01T06:16:50;8.02;;;7.63;;
12288;SDS011;6207;49.308;7.336;2022-08-01T06:19:17;7.90;;;7.40;;
12288;SDS011;6207;49.308;7.336;2022-08-01T06:21:44;7.70;;;7.30;;
12288;SDS011;6207;49.308;7.336;2022-08-01T06:24:11;8.00;;;7.50;;
12288;SDS011;6207;49.308;7.336;2022-08-01T06:26:37;7.95;;;7.45;;
12288;SDS011;6207;49.308;7.336;2022-08-01T06:29:04;7.85;;;7.45;;
12288;SDS011;6207;49.308;7.336;2022-08-01T06:31:31;8.00;;;7.60;;
12288;SDS011;6207;49.308;7.336;2022-08-01T06:33:59;8.05;;;7.60;;
12288;SDS011;6207;49.308;7.336;2022-08-01T06:36:26;7.85;;;7.45;;
12288;SDS011;6207;49.308;7.336;2022-08-01T06:38:52;8.20;;;7.57;;
12288;SDS011;6207;49.308;7.336;2022-08-01T06:41:19;8.20;;;7.80;;
12288;SDS011;6207;49.308;7.336;2022-08-01T06:43:46;7.80;;;7.40;;
12288;SDS011;6207;49.308;7.336;2022-08-01T06:46:13;8.30;;;7.90;;
12288;SDS011;6207;49.308;7.336;2022-08-01T06:48:39;8.40;;;7.95;;
12288;SDS011;6207;49.308;7.336;2022-08-01T06:51:06;8.30;;;7.90;;
12288;SDS011;6207;49.308;7.336;2022-08-01T06:53:39;8.73;;;8.07;;
12288;SDS011;6207;49.308;7.336;2022-08-01T06:56:06;8.45;;;7.97;;
12288;SDS011;6207;49.308;7.336;2022-08-01T06:58:34;8.15;;;7.75;;
12288;SDS011;6207;49.308;7.336;2022-08-01T07:01:02;8.73;;;8.23;;
12288;SDS011;6207;49.308;7.336;2022-08-01T07:03:32;8.23;;;7.82;;
12288;SDS011;6207;49.308;7.336;2022-08-01T07:06:20;9.05;;;8.27;;
12288;SDS011;6207;49.308;7.336;2022-08-01T07:08:48;8.63;;;8.23;;
12288;SDS011;6207;49.308;7.336;2022-08-01T07:11:14;8.45;;;7.95;;
12288;SDS011;6207;49.308;7.336;2022-08-01T07:13:41;8.30;;;7.90;;
12288;SDS011;6207;49.308;7.336;2022-08-01T07:16:11;7.95;;;7.55;;
12288;SDS011;6207;49.308;7.336;2022-08-01T07:18:41;7.90;;;7.50;;
12288;SDS011;6207;49.308;7.336;2022-08-01T07:21:08;7.70;;;7.30;;
12288;SDS011;6207;49.308;7.336;2022-08-01T07:23:55;7.82;;;7.43;;
12288;SDS011;6207;49.308;7.336;2022-08-01T07:26:22;7.70;;;7.30;;
12288;SDS011;6207;49.308;7.336;2022-08-01T07:28:49;7.53;;;7.22;;
12288;SDS011;6207;49.308;7.336;2022-08-01T07:31:15;7.55;;;7.25;;
12288;SDS011;6207;49.308;7.336;2022-08-01T07:33:42;8.02;;;7.53;;
12288;SDS011;6207;49.308;7.336;2022-08-01T07:36:15;7.60;;;7.20;;
12288;SDS011;6207;49.308;7.336;2022-08-01T07:38:43;7.90;;;7.40;;
12288;SDS011;6207;49.308;7.336;2022-08-01T07:41:11;8.40;;;8.00;;
12288;SDS011;6207;49.308;7.336;2022-08-01T07:43:42;8.07;;;7.60;;
12288;SDS011;6207;49.308;7.336;2022-08-01T07:46:22;8.07;;;7.68;;
12288;SDS011;6207;49.308;7.336;2022-08-01T07:48:49;8.10;;;7.70;;
12288;SDS011;6207;49.308;7.336;2022-08-01T07:51:16;8.00;;;7.60;;
12288;SDS011;6207;49.308;7.336;2022-08-01T07:53:43;7.90;;;7.50;;
12288;SDS011;6207;49.308;7.336;2022-08-01T07:56:10;8.98;;;8.45;;
12288;SDS011;6207;49.308;7.336;2022-08-01T07:58:37;8.30;;;7.90;;
12288;SDS011;6207;49.308;7.336;2022-08-01T08:01:04;8.30;;;7.80;;
12288;SDS011;6207;49.308;7.336;2022-08-01T08:03:31;8.30;;;7.80;;
12288;SDS011;6207;49.308;7.336;2022-08-01T08:05:58;8.10;;;7.70;;
12288;SDS011;6207;49.308;7.336;2022-08-01T08:08:29;7.97;;;7.47;;
12288;SDS011;6207;49.308;7.336;2022-08-01T08:10:56;8.10;;;7.50;;
12288;SDS011;6207;49.308;7.336;2022-08-01T08:13:24;7.60;;;7.20;;
12288;SDS011;6207;49.308;7.336;2022-08-01T08:15:52;7.50;;;7.10;;
12288;SDS011;6207;49.308;7.336;2022-08-01T08:18:18;7.95;;;7.55;;
12288;SDS011;6207;49.308;7.336;2022-08-01T08:20:45;7.90;;;7.40;;
12288;SDS011;6207;49.308;7.336;2022-08-01T08:23:15;7.63;;;7.32;;
12288;SDS011;6207;49.308;7.336;2022-08-01T08:26:09;8.00;;;7.60;;
12288;SDS011;6207;49.308;7.336;2022-08-01T08:28:39;8.07;;;7.57;;
12288;SDS011;6207;49.308;7.336;2022-08-01T08:31:09;8.38;;;7.88;;
12288;SDS011;6207;49.308;7.336;2022-08-01T08:33:56;8.80;;;8.30;;
12288;SDS011;6207;49.308;7.336;2022-08-01T08:36:23;7.85;;;7.25;;
12288;SDS011;6207;49.308;7.336;2022-08-01T08:38:57;8.65;;;8.25;;
12288;SDS011;6207;49.308;7.336;2022-08-01T08:41:27;7.65;;;7.25;;
12288;SDS011;6207;49.308;7.336;2022-08-01T08:44:07;8.05;;;7.55;;
12288;SDS011;6207;49.308;7.336;2022-08-01T08:46:40;8.25;;;7.70;;
12288;SDS011;6207;49.308;7.336;2022-08-01T08:49:09;8.40;;;7.65;;
12288;SDS011;6207;49.308;7.336;2022-08-01T08:51:38;8.20;;;7.65;;
12288;SDS011;6207;49.308;7.336;2022-08-01T08:54:06;8.10;;;7.70;;
12288;SDS011;6207;49.308;7.336;2022-08-01T08:56:34;7.80;;;7.40;;
12288;SDS011;6207;49.308;7.336;2022-08-01T08:59:02;8.20;;;7.80;;
12288;SDS011;6207;49.308;7.336;2022-08-01T09:01:30;8.20;;;7.60;;
12288;SDS011;6207;49.308;7.336;2022-08-01T09:03:59;7.85;;;7.55;;
12288;SDS011;6207;49.308;7.336;2022-08-01T09:06:26;8.02;;;7.60;;
12288;SDS011;6207;49.308;7.336;2022-08-01T09:08:54;7.75;;;7.45;;
12288;SDS011;6207;49.308;7.336;2022-08-01T09:11:21;7.80;;;7.40;;
12288;SDS011;6207;49.308;7.336;2022-08-01T09:14:11;7.93;;;7.50;;
12288;SDS011;6207;49.308;7.336;2022-08-01T09:16:42;7.80;;;7.40;;
12288;SDS011;6207;49.308;7.336;2022-08-01T09:19:15;8.13;;;7.60;;
12288;SDS011;6207;49.308;7.336;2022-08-01T09:22:04;7.55;;;7.25;;
12288;SDS011;6207;49.308;7.336;2022-08-01T09:24:34;8.25;;;7.85;;
12288;SDS011;6207;49.308;7.336;2022-08-01T09:27:14;8.13;;;7.70;;
12288;SDS011;6207;49.308;7.336;2022-08-01T09:29:47;7.80;;;7.40;;
12288;SDS011;6207;49.308;7.336;2022-08-01T09:32:27;8.07;;;7.45;;
12288;SDS011;6207;49.308;7.336;2022-08-01T09:38:13;8.13;;;7.63;;
12288;SDS011;6207;49.308;7.336;2022-08-01T09:43:14;8.10;;;7.70;;
12288;SDS011;6207;49.308;7.336;2022-08-01T09:45:41;8.25;;;7.85;;
12288;SDS011;6207;49.308;7.336;2022-08-01T09:48:14;8.07;;;7.53;;
12288;SDS011;6207;49.308;7.336;2022-08-01T09:50:48;8.30;;;7.80;;
12288;SDS011;6207;49.308;7.336;2022-08-01T09:53:17;8.15;;;7.65;;
12288;SDS011;6207;49.308;7.336;2022-08-01T09:56:00;8.23;;;7.82;;
12288;SDS011;6207;49.308;7.336;2022-08-01T09:58:48;8.75;;;8.15;;
12288;SDS011;6207;49.308;7.336;2022-08-01T10:01:25;8.10;;;7.70;;
12288;SDS011;6207;49.308;7.336;2022-08-01T10:06:37;8.50;;;8.07;;
12288;SDS011;6207;49.308;7.336;2022-08-01T10:09:06;8.63;;;8.23;;
12288;SDS011;6207;49.308;7.336;2022-08-01T10:11:33;8.32;;;7.80;;
12288;SDS011;6207;49.308;7.336;2022-08-01T10:14:05;8.52;;;8.10;;
12288;SDS011;6207;49.308;7.336;2022-08-01T10:16:34;8.23;;;7.72;;
12288;SDS011;6207;49.308;7.336;2022-08-01T10:19:05;9.18;;;8.57;;
12288;SDS011;6207;49.308;7.336;2022-08-01T10:21:40;8.93;;;8.43;;
12288;SDS011;6207;49.308;7.336;2022-08-01T10:24:24;8.98;;;8.38;;
12288;SDS011;6207;49.308;7.336;2022-08-01T14:46:44;8.23;;;7.78;;
12288;SDS011;6207;49.308;7.336;2022-08-01T14:49:23;8.20;;;7.70;;
12288;SDS011;6207;49.308;7.336;2022-08-01T14:51:50;8.20;;;7.70;;
12288;SDS011;6207;49.308;7.336;2022-08-01T14:54:17;8.13;;;7.60;;
12288;SDS011;6207;49.308;7.336;2022-08-01T14:56:54;8.60;;;8.00;;
12288;SDS011;6207;49.308;7.336;2022-08-01T14:59:21;8.18;;;7.80;;
12288;SDS011;6207;49.308;7.336;2022-08-01T15:01:47;7.88;;;7.47;;
12288;SDS011;6207;49.308;7.336;2022-08-01T15:04:14;8.07;;;7.60;;
12288;SDS011;6207;49.308;7.336;2022-08-01T15:06:41;8.00;;;7.60;;
12288;SDS011;6207;49.308;7.336;2022-08-01T15:09:08;8.05;;;7.57;;
12288;SDS011;6207;49.308;7.336;2022-08-01T15:11:35;8.18;;;7.78;;
12288;SDS011;6207;49.308;7.336;2022-08-01T15:14:02;8.00;;;7.60;;
12288;SDS011;6207;49.308;7.336;2022-08-01T15:16:47;7.93;;;7.60;;
12288;SDS011;6207;49.308;7.336;2022-08-01T15:19:14;8.10;;;7.53;;
12288;SDS011;6207;49.308;7.336;2022-08-01T15:21:42;7.70;;;7.30;;
12288;SDS011;6207;49.308;7.336;2022-08-01T15:24:09;7.82;;;7.38;;
12288;SDS011;6207;49.308;7.336;2022-08-01T15:26:36;7.63;;;7.13;;
12288;SDS011;6207;49.308;7.336;2022-08-01T15:29:03;8.20;;;7.50;;
12288;SDS011;6207;49.308;7.336;2022-08-01T15:31:30;7.78;;;7.35;;
12288;SDS011;6207;49.308;7.336;2022-08-01T15:33:57;7.75;;;7.22;;
12288;SDS011;6207;49.308;7.336;2022-08-01T15:36:26;7.95;;;7.55;;
12288;SDS011;6207;49.308;7.336;2022-08-01T15:38:53;7.70;;;7.30;;
12288;SDS011;6207;49.308;7.336;2022-08-01T15:41:21;7.78;;;7.20;;
12288;SDS011;6207;49.308;7.336;2022-08-01T15:43:48;7.65;;;7.35;;
12288;SDS011;6207;49.308;7.336;2022-08-01T15:46:21;7.80;;;7.40;;
12288;SDS011;6207;49.308;7.336;2022-08-01T15:48:48;8.00;;;7.60;;
12288;SDS011;6207;49.308;7.336;2022-08-01T15:51:15;8.10;;;7.70;;
12288;SDS011;6207;49.308;7.336;2022-08-01T15:53:42;8.18;;;7.78;;
12288;SDS011;6207;49.308;7.336;2022-08-01T15:56:10;7.70;;;7.20;;
12288;SDS011;6207;49.308;7.336;2022-08-01T15:58:37;7.68;;;7.30;;
12288;SDS011;6207;49.308;7.336;2022-08-01T16:01:04;7.80;;;7.20;;
12288;SDS011;6207;49.308;7.336;2022-08-01T16:03:30;7.80;;;7.30;;
12288;SDS011;6207;49.308;7.336;2022-08-01T16:05:57;7.97;;;7.60;;
12288;SDS011;6207;49.308;7.336;2022-08-01T16:08:24;7.70;;;7.30;;
12288;SDS011;6207;49.308;7.336;2022-08-01T16:10:51;7.95;;;7.55;;
12288;SDS011;6207;49.308;7.336;2022-08-01T16:13:18;8.05;;;7.53;;
12288;SDS011;6207;49.308;7.336;2022-08-01T16:15:44;8.00;;;7.60;;
12288;SDS011;6207;49.308;7.336;2022-08-01T16:18:11;8.30;;;7.80;;
12288;SDS011;6207;49.308;7.336;2022-08-01T16:20:39;8.52;;;8.00;;
12288;SDS011;6207;49.308;7.336;2022-08-01T16:23:11;7.75;;;7.25;;
12288;SDS011;6207;49.308;7.336;2022-08-01T16:25:39;7.70;;;7.30;;
12288;SDS011;6207;49.308;7.336;2022-08-01T16:28:06;7.80;;;7.40;;
12288;SDS011;6207;49.308;7.336;2022-08-01T16:30:35;7.65;;;7.25;;
12288;SDS011;6207;49.308;7.336;2022-08-01T16:33:08;7.75;;;7.43;;
12288;SDS011;6207;49.308;7.336;2022-08-01T16:35:55;8.00;;;7.60;;
12288;SDS011;6207;49.308;7.336;2022-08-01T16:38:23;7.35;;;7.05;;
12288;SDS011;6207;49.308;7.336;2022-08-01T16:40:50;7.65;;;7.35;;
12288;SDS011;6207;49.308;7.336;2022-08-01T16:43:18;7.97;;;7.68;;
12288;SDS011;6207;49.308;7.336;2022-08-01T16:45:45;7.80;;;7.40;;
12288;SDS011;6207;49.308;7.336;2022-08-01T16:48:12;7.90;;;7.50;;
12288;SDS011;6207;49.308;7.336;2022-08-01T16:50:41;7.70;;;7.30;;
12288;SDS011;6207;49.308;7.336;2022-08-01T16:53:08;7.82;;;7.43;;
12288;SDS011;6207;49.308;7.336;2022-08-01T16:55:35;7.70;;;7.30;;
12288;SDS011;6207;49.308;7.336;2022-08-01T16:58:16;7.63;;;7.22;;
12288;SDS011;6207;49.308;7.336;2022-08-01T17:00:48;12.77;;;7.50;;
12288;SDS011;6207;49.308;7.336;2022-08-01T17:03:21;8.20;;;7.80;;
12288;SDS011;6207;49.308;7.336;2022-08-01T17:06:09;7.93;;;7.60;;
12288;SDS011;6207;49.308;7.336;2022-08-01T17:08:35;8.40;;;7.80;;
12288;SDS011;6207;49.308;7.336;2022-08-01T17:11:12;7.72;;;7.32;;
12288;SDS011;6207;49.308;7.336;2022-08-01T17:13:40;7.85;;;7.53;;
12288;SDS011;6207;49.308;7.336;2022-08-01T17:16:07;7.90;;;7.60;;
12288;SDS011;6207;49.308;7.336;2022-08-01T17:18:34;7.90;;;7.60;;
12288;SDS011;6207;49.308;7.336;2022-08-01T17:21:01;8.23;;;7.63;;
12288;SDS011;6207;49.308;7.336;2022-08-01T17:23:28;8.70;;;7.85;;
12288;SDS011;6207;49.308;7.336;2022-08-01T17:25:57;31.60;;;9.75;;
12288;SDS011;6207;49.308;7.336;2022-08-01T17:28:24;8.13;;;7.53;;
12288;SDS011;6207;49.308;7.336;2022-08-01T17:30:51;7.80;;;7.40;;
12288;SDS011;6207;49.308;7.336;2022-08-01T17:33:18;7.70;;;7.35;;
12288;SDS011;6207;49.308;7.336;2022-08-01T17:35:46;8.45;;;7.90;;
12288;SDS011;6207;49.308;7.336;2022-08-01T17:38:12;7.70;;;7.40;;
12288;SDS011;6207;49.308;7.336;2022-08-01T17:40:39;8.40;;;8.00;;
12288;SDS011;6207;49.308;7.336;2022-08-01T17:43:06;8.00;;;7.60;;
12288;SDS011;6207;49.308;7.336;2022-08-01T17:45:34;7.97;;;7.57;;
12288;SDS011;6207;49.308;7.336;2022-08-01T17:48:16;8.68;;;8.10;;
12288;SDS011;6207;49.308;7.336;2022-08-01T17:50:43;8.30;;;7.90;;
12288;SDS011;6207;49.308;7.336;2022-08-01T17:53:12;8.57;;;7.97;;
12288;SDS011;6207;49.308;7.336;2022-08-01T17:55:40;8.07;;;7.78;;
12288;SDS011;6207;49.308;7.336;2022-08-01T17:58:22;8.40;;;7.80;;
12288;SDS011;6207;49.308;7.336;2022-08-01T18:01:09;8.20;;;7.70;;
12288;SDS011;6207;49.308;7.336;2022-08-01T18:03:37;8.35;;;7.90;;
12288;SDS011;6207;49.308;7.336;2022-08-01T18:06:06;8.55;;;7.85;;
12288;SDS011;6207;49.308;7.336;2022-08-01T18:08:39;8.05;;;7.65;;
12288;SDS011;6207;49.308;7.336;2022-08-01T18:11:07;8.20;;;7.80;;
12288;SDS011;6207;49.308;7.336;2022-08-01T18:13:34;8.60;;;8.00;;
12288;SDS011;6207;49.308;7.336;2022-08-01T18:16:06;8.20;;;7.70;;
12288;SDS011;6207;49.308;7.336;2022-08-01T18:18:34;8.32;;;7.93;;
12288;SDS011;6207;49.308;7.336;2022-08-01T18:21:02;8.40;;;7.90;;
12288;SDS011;6207;49.308;7.336;2022-08-01T18:23:29;8.50;;;8.10;;
12288;SDS011;6207;49.308;7.336;2022-08-01T18:25:58;8.38;;;7.97;;
12288;SDS011;6207;49.308;7.336;2022-08-01T18:28:28;8.48;;;7.97;;
12288;SDS011;6207;49.308;7.336;2022-08-01T18:31:01;8.10;;;7.80;;
12288;SDS011;6207;49.308;7.336;2022-08-01T18:33:28;8.77;;;8.38;;
12288;SDS011;6207;49.308;7.336;2022-08-01T18:35:55;8.75;;;8.23;;
12288;SDS011;6207;49.308;7.336;2022-08-01T18:38:29;8.40;;;7.90;;
12288;SDS011;6207;49.308;7.336;2022-08-01T18:40:58;8.48;;;8.07;;
12288;SDS011;6207;49.308;7.336;2022-08-01T18:43:26;8.60;;;8.10;;
12288;SDS011;6207;49.308;7.336;2022-08-01T18:45:52;7.93;;;7.63;;
12288;SDS011;6207;49.308;7.336;2022-08-01T18:48:22;8.65;;;8.20;;
12288;SDS011;6207;49.308;7.336;2022-08-01T18:50:49;8.55;;;8.15;;
12288;SDS011;6207;49.308;7.336;2022-08-01T18:53:16;8.25;;;7.85;;
12288;SDS011;6207;49.308;7.336;2022-08-01T18:55:44;8.18;;;7.78;;
12288;SDS011;6207;49.308;7.336;2022-08-01T18:58:10;8.20;;;7.80;;
12288;SDS011;6207;49.308;7.336;2022-08-01T19:00:37;8.40;;;8.00;;
12288;SDS011;6207;49.308;7.336;2022-08-01T19:03:05;8.10;;;7.60;;
12288;SDS011;6207;49.308;7.336;2022-08-01T19:05:33;8.80;;;8.20;;
12288;SDS011;6207;49.308;7.336;2022-08-01T19:08:01;8.10;;;7.70;;
12288;SDS011;6207;49.308;7.336;2022-08-01T19:10:37;8.32;;;7.93;;
12288;SDS011;6207;49.308;7.336;2022-08-01T19:13:04;8.43;;;8.02;;
12288;SDS011;6207;49.308;7.336;2022-08-01T19:15:33;8.52;;;7.93;;
12288;SDS011;6207;49.308;7.336;2022-08-01T19:18:00;8.65;;;8.15;;
12288;SDS011;6207;49.308;7.336;2022-08-01T19:20:28;8.38;;;7.90;;
12288;SDS011;6207;49.308;7.336;2022-08-01T19:22:55;8.30;;;7.90;;
12288;SDS011;6207;49.308;7.336;2022-08-01T19:25:22;9.23;;;8.70;;
12288;SDS011;6207;49.308;7.336;2022-08-01T19:27:49;8.40;;;7.90;;
12288;SDS011;6207;49.308;7.336;2022-08-01T19:30:17;9.05;;;8.55;;
12288;SDS011;6207;49.308;7.336;2022-08-01T19:32:45;8.65;;;8.15;;
12288;SDS011;6207;49.308;7.336;2022-08-01T19:35:13;8.00;;;7.60;;
12288;SDS011;6207;49.308;7.336;2022-08-01T19:37:42;8.27;;;7.85;;
12288;SDS011;6207;49.308;7.336;2022-08-01T19:40:13;8.27;;;7.88;;
12288;SDS011;6207;49.308;7.336;2022-08-01T19:42:53;8.75;;;8.00;;
12288;SDS011;6207;49.308;7.336;2022-08-01T19:45:21;8.73;;;8.15;;
12288;SDS011;6207;49.308;7.336;2022-08-01T19:47:50;8.70;;;7.97;;
12288;SDS011;6207;49.308;7.336;2022-08-01T19:50:23;8.70;;;8.18;;
12288;SDS011;6207;49.308;7.336;2022-08-01T19:52:56;8.13;;;7.70;;